createdAt,value
2023-04-19T00:05:04.035Z,24.49
2023-04-19T00:10:12.442Z,25.83
2023-04-19T00:15:21.555Z,27.89
2023-04-19T00:20:30.262Z,25.09
2023-04-19T00:25:39.204Z,24.64
2023-04-19T00:30:47.899Z,24.77
2023-04-19T00:35:56.614Z,24.41
2023-04-19T00:41:05.176Z,24.62
2023-04-19T00:46:14.262Z,23.85
2023-04-19T00:51:22.429Z,24.66
2023-04-19T00:56:30.975Z,24.83
2023-04-19T01:01:39.595Z,22.56
2023-04-19T01:06:48.136Z,25.95
2023-04-19T01:11:56.691Z,23.95
2023-04-19T01:17:05.656Z,21.50
2023-04-19T01:22:14.350Z,23.79
2023-04-19T01:27:23.326Z,23.59
2023-04-19T01:32:32.058Z,22.32
2023-04-19T01:37:41.044Z,21.78
2023-04-19T01:42:49.687Z,21.42
2023-04-19T01:47:58.545Z,22.45
2023-04-19T01:53:07.338Z,24.75
2023-04-19T01:58:16.299Z,22.50
2023-04-19T02:03:25.222Z,22.66
2023-04-19T02:08:33.755Z,21.56
2023-04-19T02:13:42.239Z,23.61
2023-04-19T02:18:51.155Z,19.71
2023-04-19T02:23:59.467Z,20.23
2023-04-19T02:29:08.449Z,20.59
2023-04-19T02:34:17.196Z,20.48
2023-04-19T02:39:26.067Z,22.08
2023-04-19T02:44:34.652Z,21.05
2023-04-19T02:49:43.603Z,21.36
2023-04-19T02:54:52.352Z,20.44
2023-04-19T03:00:01.088Z,21.11
2023-04-19T03:05:09.727Z,20.17
2023-04-19T03:10:18.612Z,20.96
2023-04-19T03:15:27.233Z,20.26
2023-04-19T03:20:36.053Z,21.29
2023-04-19T03:25:44.769Z,21.87
2023-04-19T03:30:53.774Z,20.66
2023-04-19T03:36:02.372Z,21.86
2023-04-19T03:41:11.663Z,19.81
2023-04-19T03:46:20.472Z,20.91
2023-04-19T03:51:29.209Z,22.19
2023-04-19T03:56:37.854Z,21.62
2023-04-19T04:01:47.180Z,20.75
2023-04-19T04:06:55.774Z,20.81
2023-04-19T04:12:04.825Z,21.67
2023-04-19T04:17:13.692Z,20.76
2023-04-19T04:22:22.766Z,23.05
2023-04-19T04:27:31.295Z,23.15
2023-04-19T04:32:40.288Z,22.69
2023-04-19T04:37:48.890Z,22.29
2023-04-19T04:42:57.895Z,20.42
2023-04-19T04:48:06.677Z,21.09
2023-04-19T04:53:15.382Z,19.37
2023-04-19T04:58:24.136Z,21.44
2023-04-19T05:03:32.848Z,20.45
2023-04-19T05:08:41.463Z,20.73
